Time;durP1;ratioP1;P1;durP2;ratioP2;P2;SDS_P1;SDS_P2;PMS_P1;PMS_P2;Temp;Humidity;BMP_temperature;BMP_pressure;BME280_temperature;BME280_humidity;BME280_pressure;Samples;Min_cycle;Max_cycle;Signal;HPM_P1;HPM_P2
2021/10/06 00:01:26;;;;;;;7.73;1.87;;;20.50;66.70;;;;;;5082210;28;20179;-68
2021/10/06 00:03:53;;;;;;;9.07;2.23;;;20.60;68.20;;;;;;5091682;28;20181;-70
2021/10/06 00:06:21;;;;;;;9.33;2.00;;;20.80;66.00;;;;;;5091832;28;20254;-69
2021/10/06 00:08:48;;;;;;;9.10;2.60;;;21.10;67.10;;;;;;5090907;28;20174;-72
2021/10/06 00:11:15;;;;;;;9.50;1.97;;;21.10;66.90;;;;;;5094452;28;20214;-70
2021/10/06 00:13:43;;;;;;;6.17;1.83;;;21.20;66.90;;;;;;5095138;28;20182;-70
2021/10/06 00:16:12;;;;;;;10.20;2.20;;;21.30;66.10;;;;;;5093885;28;20174;-71
2021/10/06 00:18:41;;;;;;;9.30;2.10;;;21.40;65.10;;;;;;5095283;28;20214;-68
2021/10/06 00:21:09;;;;;;;11.60;1.90;;;21.60;64.70;;;;;;5094725;28;20174;-72
2021/10/06 00:23:36;;;;;;;6.13;1.57;;;21.50;63.20;;;;;;5088293;28;20170;-70
2021/10/06 00:26:05;;;;;;;7.00;1.60;;;21.40;63.40;;;;;;5091034;28;20182;-70
2021/10/06 00:28:33;;;;;;;8.20;2.33;;;21.50;63.70;;;;;;5092074;28;20174;-72
2021/10/06 00:31:00;;;;;;;6.87;2.20;;;21.80;65.10;;;;;;5094500;28;20171;-70
2021/10/06 00:33:28;;;;;;;6.13;1.97;;;21.70;63.60;;;;;;5093403;28;20277;-73
2021/10/06 00:35:56;;;;;;;7.70;1.57;;;21.70;62.70;;;;;;5093446;28;20210;-68
2021/10/06 00:38:24;;;;;;;6.13;2.17;;;21.60;62.50;;;;;;5087914;28;20258;-68
2021/10/06 00:40:51;;;;;;;6.53;1.70;;;21.80;63.50;;;;;;5092739;28;20255;-71
2021/10/06 00:43:19;;;;;;;8.47;1.80;;;22.00;63.10;;;;;;5091332;28;20240;-70
2021/10/06 00:45:47;;;;;;;8.93;2.67;;;22.10;63.20;;;;;;5093700;28;20758;-70
2021/10/06 00:48:14;;;;;;;9.60;1.90;;;22.10;63.20;;;;;;5093428;28;20179;-69
2021/10/06 00:50:42;;;;;;;7.90;1.77;;;22.30;63.70;;;;;;5093620;28;20350;-68
2021/10/06 00:53:10;;;;;;;7.43;1.80;;;22.20;62.20;;;;;;5092305;28;20179;-70
2021/10/06 00:55:39;;;;;;;5.33;1.57;;;22.50;62.10;;;;;;5087905;28;20191;-69
2021/10/06 00:58:06;;;;;;;9.43;1.80;;;22.70;61.60;;;;;;5093382;28;20301;-73
2021/10/06 01:00:35;;;;;;;7.37;1.93;;;22.70;60.10;;;;;;5088599;28;20179;-71
2021/10/06 01:03:02;;;;;;;7.27;1.60;;;22.90;60.60;;;;;;5089067;28;20247;-70
2021/10/06 01:05:30;;;;;;;8.77;2.20;;;22.90;59.20;;;;;;5093307;28;20178;-73
2021/10/06 01:07:59;;;;;;;7.37;1.57;;;23.10;58.90;;;;;;5090732;28;20182;-70
2021/10/06 01:10:27;;;;;;;10.17;2.07;;;23.00;58.30;;;;;;5093183;28;20186;-72
2021/10/06 01:12:55;;;;;;;5.27;1.60;;;22.90;58.90;;;;;;5093004;28;20218;-72
2021/10/06 01:15:22;;;;;;;13.20;2.10;;;23.10;58.50;;;;;;5091975;28;20308;-71
2021/10/06 01:17:50;;;;;;;8.50;2.03;;;23.00;57.80;;;;;;5091667;28;20728;-71
2021/10/06 01:20:18;;;;;;;6.47;1.90;;;23.20;57.60;;;;;;5092739;28;20190;-71
2021/10/06 01:22:46;;;;;;;9.27;1.63;;;23.30;57.90;;;;;;5093082;28;20189;-71
2021/10/06 01:25:16;;;;;;;7.40;1.70;;;23.30;58.50;;;;;;5092316;28;20189;-70
2021/10/06 01:27:44;;;;;;;7.00;1.60;;;23.40;58.50;;;;;;5092926;28;20544;-69
2021/10/06 01:30:13;;;;;;;7.93;2.07;;;23.70;59.60;;;;;;5082184;28;20214;-72
2021/10/06 01:32:43;;;;;;;8.93;2.03;;;23.70;58.50;;;;;;5092873;28;20182;-72
2021/10/06 01:35:12;;;;;;;12.27;2.60;;;23.70;59.50;;;;;;5093381;28;20567;-73
2021/10/06 01:37:41;;;;;;;7.40;2.20;;;23.70;59.60;;;;;;5093185;28;20668;-69
2021/10/06 01:40:12;;;;;;;11.60;2.23;;;23.70;60.50;;;;;;5088988;28;20179;-71
2021/10/06 01:42:40;;;;;;;12.17;2.20;;;23.70;59.40;;;;;;5073399;28;20206;-73
2021/10/06 01:45:19;;;;;;;9.67;2.30;;;23.80;59.60;;;;;;5073507;28;20171;-72
2021/10/06 01:47:46;;;;;;;7.90;1.80;;;23.90;59.00;;;;;;5084933;28;20719;-73
2021/10/06 01:50:25;;;;;;;10.90;2.13;;;23.90;59.20;;;;;;5089923;28;20198;-71
2021/10/06 01:52:55;;;;;;;9.67;2.00;;;24.50;58.50;;;;;;5093056;28;20185;-71
2021/10/06 01:55:27;;;;;;;11.10;2.60;;;24.90;58.60;;;;;;5091100;28;20175;-71
2021/10/06 01:57:56;;;;;;;10.73;2.57;;;24.80;58.00;;;;;;5093142;28;20301;-70
2021/10/06 02:00:24;;;;;;;10.33;2.70;;;24.70;57.90;;;;;;5082316;28;20510;-73
2021/10/06 02:02:52;;;;;;;7.50;2.13;;;24.70;57.70;;;;;;5079405;28;20179;-73
2021/10/06 02:05:20;;;;;;;9.40;1.93;;;24.90;56.70;;;;;;5093703;28;20490;-74
2021/10/06 02:07:47;;;;;;;8.37;2.00;;;24.80;57.00;;;;;;5093144;28;20580;-71
2021/10/06 02:10:15;;;;;;;6.17;1.87;;;24.60;56.70;;;;;;5091150;28;20513;-71
2021/10/06 02:12:42;;;;;;;6.47;1.67;;;24.70;57.10;;;;;;5093102;28;20225;-71
2021/10/06 02:15:10;;;;;;;8.87;2.03;;;24.70;56.00;;;;;;5093061;28;20189;-73
2021/10/06 02:17:37;;;;;;;11.50;1.70;;;25.10;54.80;;;;;;5093348;28;20197;-70
2021/10/06 02:20:06;;;;;;;8.67;1.83;;;25.30;54.80;;;;;;5087973;28;20259;-70
2021/10/06 02:22:36;;;;;;;8.80;2.63;;;25.40;54.80;;;;;;5085581;28;20649;-72
2021/10/06 02:25:05;;;;;;;10.30;2.77;;;25.60;55.00;;;;;;5089997;28;20218;-69
2021/10/06 02:27:32;;;;;;;7.00;1.97;;;25.90;54.00;;;;;;5092952;28;20209;-70
2021/10/06 02:30:00;;;;;;;11.13;2.17;;;25.60;54.60;;;;;;5092260;28;20631;-70
2021/10/06 02:32:27;;;;;;;6.63;1.57;;;25.70;53.80;;;;;;5092611;28;20608;-72
2021/10/06 02:34:54;;;;;;;6.93;1.70;;;26.30;52.50;;;;;;5092762;28;20228;-69
2021/10/06 02:37:22;;;;;;;10.83;1.90;;;25.80;52.70;;;;;;5092984;28;20166;-70
2021/10/06 02:39:49;;;;;;;5.27;1.60;;;26.30;52.30;;;;;;5092366;28;20248;-69
2021/10/06 02:42:16;;;;;;;10.53;1.50;;;26.60;50.50;;;;;;5092908;28;20241;-70
2021/10/06 02:44:44;;;;;;;4.90;1.67;;;26.60;48.30;;;;;;5092760;28;20182;-69
2021/10/06 02:47:13;;;;;;;10.30;2.57;;;26.10;49.40;;;;;;5092775;28;20171;-72
2021/10/06 02:49:40;;;;;;;8.53;1.83;;;26.10;50.80;;;;;;5092727;28;20178;-69
2021/10/06 02:52:07;;;;;;;5.87;1.70;;;26.00;50.40;;;;;;5092776;28;20591;-70
2021/10/06 02:54:35;;;;;;;7.57;2.37;;;26.10;49.60;;;;;;5092256;28;20409;-69
2021/10/06 02:57:04;;;;;;;10.90;1.70;;;26.50;47.90;;;;;;5092413;28;20171;-72
2021/10/06 02:59:32;;;;;;;4.40;1.57;;;26.00;47.30;;;;;;5088576;28;20348;-69
2021/10/06 03:02:00;;;;;;;7.40;1.40;;;26.10;48.00;;;;;;5083706;28;20171;-73
2021/10/06 03:04:28;;;;;;;12.93;2.00;;;26.80;46.30;;;;;;5086159;28;20231;-74
2021/10/06 03:06:55;;;;;;;10.57;2.40;;;26.70;46.60;;;;;;5088977;28;20189;-73
2021/10/06 03:09:22;;;;;;;8.53;2.20;;;26.30;57.20;;;;;;5089877;28;20186;-72
2021/10/06 03:11:50;;;;;;;10.00;2.13;;;26.10;57.20;;;;;;5092360;28;20237;-73
2021/10/06 03:14:17;;;;;;;8.53;2.37;;;26.00;57.90;;;;;;5092050;28;20206;-72
2021/10/06 03:16:44;;;;;;;9.60;2.47;;;26.30;58.40;;;;;;5092036;28;20179;-72
2021/10/06 03:19:12;;;;;;;10.40;2.30;;;26.10;58.90;;;;;;5091536;28;20206;-72
2021/10/06 03:21:39;;;;;;;14.00;2.30;;;26.50;60.00;;;;;;5087496;28;20670;-72
2021/10/06 03:24:07;;;;;;;12.60;2.17;;;26.70;59.80;;;;;;5084958;28;20228;-77
2021/10/06 03:26:34;;;;;;;9.83;2.13;;;26.50;60.90;;;;;;5092727;28;20201;-73
2021/10/06 03:29:02;;;;;;;10.83;2.33;;;26.70;61.20;;;;;;5097483;28;20182;-75
2021/10/06 03:31:29;;;;;;;8.93;2.57;;;26.50;61.60;;;;;;5099625;28;20218;-74
2021/10/06 03:33:59;;;;;;;9.83;2.20;;;26.50;61.60;;;;;;5094093;28;20209;-75
2021/10/06 03:36:29;;;;;;;11.87;2.97;;;26.50;61.10;;;;;;5088739;28;20180;-72
2021/10/06 03:38:56;;;;;;;10.27;2.60;;;26.50;61.10;;;;;;5079230;28;20257;-72
2021/10/06 03:41:24;;;;;;;17.27;2.77;;;26.20;61.10;;;;;;5092299;28;20246;-71
2021/10/06 03:43:51;;;;;;;18.13;3.43;;;26.50;60.00;;;;;;5091205;28;20273;-72
2021/10/06 03:46:19;;;;;;;7.60;2.30;;;26.60;60.10;;;;;;5095206;28;20217;-73
2021/10/06 03:48:46;;;;;;;11.70;3.20;;;26.60;60.10;;;;;;5094499;28;20259;-72
2021/10/06 03:51:14;;;;;;;10.70;2.20;;;26.10;60.80;;;;;;5104905;28;20231;-68
2021/10/06 03:53:41;;;;;;;9.20;2.30;;;26.30;60.70;;;;;;5093065;28;20661;-69
2021/10/06 03:56:09;;;;;;;9.20;2.30;;;26.30;60.60;;;;;;5094072;28;20170;-72
2021/10/06 03:58:36;;;;;;;13.70;2.30;;;26.40;61.20;;;;;;5094020;28;20756;-76
2021/10/06 04:01:04;;;;;;;13.73;2.37;;;26.90;60.50;;;;;;5091485;28;20185;-73
2021/10/06 04:03:31;;;;;;;9.10;2.30;;;26.70;60.00;;;;;;5085402;28;20183;-72
2021/10/06 04:05:59;;;;;;;8.87;2.33;;;26.80;59.70;;;;;;5094534;28;20183;-74
2021/10/06 04:08:26;;;;;;;11.27;2.13;;;27.00;59.10;;;;;;5095152;28;20167;-73
2021/10/06 04:10:54;;;;;;;13.03;3.10;;;26.40;59.10;;;;;;5094050;28;20193;-71
2021/10/06 04:13:21;;;;;;;8.27;1.77;;;26.90;60.40;;;;;;5090575;28;20206;-71
2021/10/06 04:15:48;;;;;;;10.13;2.20;;;26.80;59.50;;;;;;5093646;28;20192;-71
2021/10/06 04:18:16;;;;;;;7.40;2.17;;;26.70;58.70;;;;;;5093358;28;20699;-72
2021/10/06 04:20:43;;;;;;;15.33;2.47;;;26.30;60.40;;;;;;5094326;28;20537;-72
2021/10/06 04:23:11;;;;;;;9.13;2.50;;;26.30;60.80;;;;;;5093245;28;20182;-72
2021/10/06 04:25:40;;;;;;;11.23;2.47;;;26.20;60.80;;;;;;5093143;28;20277;-72
2021/10/06 04:28:07;;;;;;;9.50;2.10;;;25.90;61.30;;;;;;5093238;28;20542;-72
2021/10/06 04:30:34;;;;;;;8.17;1.90;;;26.00;61.20;;;;;;5088689;28;20184;-72
2021/10/06 04:33:03;;;;;;;7.53;1.90;;;25.60;61.60;;;;;;5089632;28;20185;-73
2021/10/06 04:35:30;;;;;;;6.17;2.50;;;25.70;60.30;;;;;;5093028;28;20270;-73
2021/10/06 04:37:58;;;;;;;7.00;2.23;;;25.50;59.40;;;;;;5093603;28;20703;-71
2021/10/06 04:40:25;;;;;;;7.03;1.67;;;25.20;60.40;;;;;;5093924;28;20612;-73
2021/10/06 04:42:52;;;;;;;6.47;2.10;;;25.50;60.30;;;;;;5090678;28;20286;-74
2021/10/06 04:45:21;;;;;;;7.43;2.13;;;25.70;59.70;;;;;;5087911;28;20179;-72
2021/10/06 04:47:49;;;;;;;12.23;1.90;;;25.70;59.40;;;;;;5099864;28;20174;-70
2021/10/06 04:50:16;;;;;;;6.17;1.97;;;25.60;60.60;;;;;;5090575;28;20174;-71
2021/10/06 04:52:44;;;;;;;6.07;1.70;;;25.70;59.80;;;;;;5093150;28;20522;-71
2021/10/06 04:55:11;;;;;;;7.47;1.60;;;25.40;58.80;;;;;;5086716;28;20181;-69
2021/10/06 04:57:38;;;;;;;8.10;2.10;;;25.20;59.80;;;;;;5089366;28;20543;-73
2021/10/06 05:00:06;;;;;;;12.40;2.07;;;25.80;59.50;;;;;;5092538;28;20191;-72
2021/10/06 05:02:34;;;;;;;10.87;1.60;;;25.70;57.50;;;;;;5085278;28;20170;-70
2021/10/06 05:05:01;;;;;;;9.83;2.47;;;25.90;57.20;;;;;;5087200;28;20179;-72
2021/10/06 05:07:28;;;;;;;3.73;1.40;;;25.70;58.20;;;;;;5092830;28;20178;-70
2021/10/06 05:09:55;;;;;;;5.40;1.70;;;25.60;56.10;;;;;;5083755;28;20252;-70
2021/10/06 05:12:23;;;;;;;9.53;1.60;;;25.60;56.20;;;;;;5089505;28;20231;-72
2021/10/06 05:14:51;;;;;;;2.57;1.40;;;25.60;55.40;;;;;;5089308;28;20186;-72
2021/10/06 05:17:19;;;;;;;4.80;1.57;;;25.70;56.00;;;;;;5086220;28;20170;-69
2021/10/06 05:19:46;;;;;;;7.57;1.53;;;26.00;54.20;;;;;;5089327;28;20760;-72
2021/10/06 05:22:13;;;;;;;4.07;1.40;;;26.50;54.40;;;;;;5092633;28;20217;-73
2021/10/06 05:24:41;;;;;;;4.67;1.67;;;26.60;54.20;;;;;;5090133;28;20187;-71
2021/10/06 05:27:08;;;;;;;7.50;1.60;;;26.60;54.90;;;;;;5092212;28;20190;-74
2021/10/06 05:29:36;;;;;;;4.27;1.50;;;27.10;53.70;;;;;;5090719;28;20236;-73
2021/10/06 05:32:04;;;;;;;3.80;1.60;;;26.40;55.10;;;;;;5089707;28;20179;-71
2021/10/06 05:34:33;;;;;;;11.27;1.80;;;26.40;55.50;;;;;;5092849;28;20190;-73
2021/10/06 05:37:00;;;;;;;2.80;1.13;;;26.30;54.20;;;;;;5087552;28;20548;-72
2021/10/06 05:39:27;;;;;;;5.53;1.53;;;26.80;55.60;;;;;;5090281;28;20218;-72
2021/10/06 05:41:54;;;;;;;8.13;1.60;;;27.30;55.00;;;;;;5088814;28;20183;-71
2021/10/06 05:44:22;;;;;;;3.33;1.50;;;28.20;54.30;;;;;;5081895;28;20190;-75
2021/10/06 05:46:49;;;;;;;5.57;1.50;;;27.40;52.00;;;;;;5090178;28;20187;-71
2021/10/06 05:49:17;;;;;;;4.97;1.50;;;27.30;54.00;;;;;;5087063;28;20179;-73
2021/10/06 05:51:44;;;;;;;4.67;1.60;;;26.70;52.80;;;;;;5090963;28;20247;-75
2021/10/06 05:54:11;;;;;;;5.17;1.27;;;27.20;53.60;;;;;;5088523;28;20183;-74
2021/10/06 05:56:39;;;;;;;4.83;1.37;;;27.40;52.50;;;;;;5086415;28;20557;-71
2021/10/06 05:59:07;;;;;;;4.33;1.40;;;27.50;53.00;;;;;;5086925;28;20211;-73
2021/10/06 06:01:34;;;;;;;6.53;1.50;;;26.90;52.20;;;;;;5085133;28;20642;-75
2021/10/06 06:04:01;;;;;;;3.80;1.27;;;26.70;52.90;;;;;;5090808;28;20178;-73
2021/10/06 06:06:29;;;;;;;4.13;1.40;;;26.50;52.50;;;;;;5093291;28;20163;-72
2021/10/06 06:08:56;;;;;;;5.93;1.10;;;26.10;53.00;;;;;;5090961;28;20265;-74
2021/10/06 06:11:26;;;;;;;5.80;1.53;;;25.80;53.00;;;;;;5092750;28;20297;-73
2021/10/06 06:13:54;;;;;;;3.13;1.07;;;25.60;56.40;;;;;;5091614;28;20178;-72
2021/10/06 06:16:21;;;;;;;5.87;1.53;;;25.70;53.80;;;;;;5090144;28;20178;-75
2021/10/06 06:18:49;;;;;;;4.77;1.10;;;26.00;52.20;;;;;;5078515;28;20203;-74
2021/10/06 06:21:16;;;;;;;5.47;1.30;;;25.20;53.10;;;;;;5092508;28;20216;-73
2021/10/06 06:23:44;;;;;;;5.50;1.23;;;25.30;55.40;;;;;;5091439;28;20177;-75
2021/10/06 06:26:12;;;;;;;4.33;1.10;;;25.30;56.10;;;;;;5090696;28;20201;-69
2021/10/06 06:28:39;;;;;;;7.03;1.87;;;25.00;54.50;;;;;;5092112;28;20310;-77
2021/10/06 06:31:08;;;;;;;6.63;1.43;;;24.60;54.70;;;;;;5092367;28;20224;-71
2021/10/06 06:33:36;;;;;;;6.17;1.17;;;25.10;56.50;;;;;;5092622;28;20227;-73
2021/10/06 06:36:04;;;;;;;4.10;1.17;;;25.50;57.70;;;;;;5092756;28;20227;-73
2021/10/06 06:38:32;;;;;;;6.20;1.83;;;25.30;58.60;;;;;;5092440;28;20203;-71
2021/10/06 06:40:59;;;;;;;8.07;1.53;;;25.40;59.30;;;;;;5092709;28;20261;-73
2021/10/06 06:43:27;;;;;;;4.40;1.40;;;25.10;59.90;;;;;;5077191;28;20198;-72
2021/10/06 06:45:54;;;;;;;8.03;1.57;;;24.60;59.90;;;;;;5082490;28;20258;-74
2021/10/06 06:48:22;;;;;;;7.53;1.50;;;24.90;60.50;;;;;;5090875;28;20178;-73
2021/10/06 06:50:53;;;;;;;3.63;1.20;;;24.50;61.30;;;;;;5092416;28;20183;-72
2021/10/06 06:53:27;;;;;;;7.27;1.60;;;24.80;61.50;;;;;;5091706;28;20205;-78
2021/10/06 06:55:59;;;;;;;8.30;1.30;;;25.00;61.00;;;;;;5101708;28;20533;-74
2021/10/06 06:58:27;;;;;;;6.33;1.50;;;24.60;61.60;;;;;;5094333;28;20228;-73
2021/10/06 07:00:54;;;;;;;6.53;1.57;;;24.30;62.50;;;;;;5092593;28;20173;-74
2021/10/06 07:03:22;;;;;;;5.37;1.70;;;24.10;62.80;;;;;;5086850;28;20228;-74
2021/10/06 07:05:49;;;;;;;6.93;1.73;;;23.80;63.20;;;;;;5084432;28;20243;-72
2021/10/06 07:08:16;;;;;;;5.23;1.43;;;23.80;63.70;;;;;;5090636;28;20655;-73
2021/10/06 07:10:44;;;;;;;11.13;2.00;;;23.90;64.00;;;;;;5072890;28;20186;-74
2021/10/06 07:13:11;;;;;;;9.07;1.40;;;23.50;64.60;;;;;;5089657;28;20214;-73
2021/10/06 07:15:38;;;;;;;5.93;1.50;;;23.20;64.80;;;;;;5092073;28;20225;-71
2021/10/06 07:18:06;;;;;;;8.43;1.60;;;23.40;65.10;;;;;;5084362;28;20727;-75
2021/10/06 07:20:33;;;;;;;6.27;1.60;;;23.50;64.80;;;;;;5090941;28;20249;-70
2021/10/06 07:23:01;;;;;;;5.77;1.63;;;22.90;64.90;;;;;;5095610;28;20182;-72
2021/10/06 07:25:28;;;;;;;10.73;2.27;;;22.60;65.80;;;;;;5088302;28;20232;-71
2021/10/06 07:27:56;;;;;;;14.63;6.67;;;22.10;67.60;;;;;;5085478;28;20677;-72
2021/10/06 07:30:23;;;;;;;18.77;11.80;;;21.70;69.00;;;;;;5096880;28;20539;-70
2021/10/06 07:32:50;;;;;;;10.87;2.80;;;21.40;69.90;;;;;;5097210;28;20178;-72
2021/10/06 07:35:18;;;;;;;6.63;1.67;;;21.00;70.80;;;;;;5086938;28;20248;-72
2021/10/06 07:37:45;;;;;;;10.13;1.90;;;20.80;72.20;;;;;;5092333;28;20441;-73
2021/10/06 07:40:13;;;;;;;7.03;1.73;;;20.60;73.10;;;;;;5097992;28;20202;-74
2021/10/06 07:42:40;;;;;;;6.47;1.97;;;20.40;73.60;;;;;;5097570;28;20625;-70
2021/10/06 07:45:08;;;;;;;7.67;1.70;;;20.30;74.40;;;;;;5098793;28;20174;-72
2021/10/06 07:47:36;;;;;;;11.47;2.20;;;20.20;74.20;;;;;;5098237;28;20558;-72
2021/10/06 07:50:04;;;;;;;8.87;2.00;;;20.00;74.20;;;;;;5098842;28;20202;-73
2021/10/06 07:52:32;;;;;;;8.30;2.07;;;20.00;74.90;;;;;;5099059;28;20218;-73
2021/10/06 07:54:59;;;;;;;8.17;1.87;;;19.90;75.10;;;;;;5093076;28;20258;-73
2021/10/06 07:57:26;;;;;;;9.17;1.63;;;19.80;75.70;;;;;;5088243;28;20634;-70
2021/10/06 07:59:54;;;;;;;9.63;1.93;;;19.70;75.90;;;;;;5093758;28;20231;-71
2021/10/06 08:02:23;;;;;;;6.50;1.40;;;19.70;77.00;;;;;;5092618;28;20273;-70
2021/10/06 08:04:51;;;;;;;6.83;1.93;;;19.50;76.60;;;;;;5097315;28;20593;-71
2021/10/06 08:07:18;;;;;;;7.83;1.67;;;19.60;77.50;;;;;;5097156;28;20640;-72
2021/10/06 08:09:45;;;;;;;9.63;2.00;;;19.50;77.90;;;;;;5097482;28;20241;-71
2021/10/06 08:12:13;;;;;;;12.40;2.07;;;19.50;78.70;;;;;;5097629;28;20225;-71
2021/10/06 08:14:40;;;;;;;5.13;1.50;;;19.50;79.50;;;;;;5098221;28;20179;-71
2021/10/06 08:17:07;;;;;;;8.43;2.10;;;19.40;78.00;;;;;;5097851;28;20186;-72
2021/10/06 08:19:35;;;;;;;7.97;1.93;;;19.30;79.60;;;;;;5083715;28;20570;-70
2021/10/06 08:22:02;;;;;;;12.80;1.90;;;19.30;78.50;;;;;;5096517;28;20229;-71
2021/10/06 08:24:30;;;;;;;9.47;2.33;;;19.20;79.10;;;;;;5096588;28;20218;-70
2021/10/06 08:26:57;;;;;;;10.20;2.50;;;19.20;79.30;;;;;;5097530;28;20189;-71
2021/10/06 08:29:25;;;;;;;6.20;1.80;;;19.20;79.50;;;;;;5098265;28;20198;-72
2021/10/06 08:31:52;;;;;;;10.90;1.73;;;19.20;81.40;;;;;;5094710;28;20178;-71
2021/10/06 08:34:20;;;;;;;10.33;2.07;;;19.10;81.30;;;;;;5086524;28;20759;-70
2021/10/06 08:36:47;;;;;;;9.00;2.10;;;19.10;82.10;;;;;;5094221;28;20171;-71
2021/10/06 08:39:15;;;;;;;8.17;1.90;;;19.10;82.30;;;;;;5092543;28;20229;-72
2021/10/06 08:41:42;;;;;;;8.57;2.00;;;19.00;83.00;;;;;;5083519;28;20187;-72
2021/10/06 08:44:09;;;;;;;14.50;2.07;;;19.00;83.70;;;;;;5087068;28;20206;-71
2021/10/06 08:46:37;;;;;;;8.43;1.90;;;19.00;84.30;;;;;;5092244;28;20191;-71
2021/10/06 08:49:06;;;;;;;9.67;1.80;;;19.10;84.50;;;;;;5096729;28;20270;-71
2021/10/06 08:51:33;;;;;;;6.70;2.00;;;19.00;85.80;;;;;;5094861;28;20232;-72
2021/10/06 08:54:00;;;;;;;7.33;1.63;;;19.00;85.30;;;;;;5089727;28;20190;-71
2021/10/06 08:56:29;;;;;;;9.73;2.27;;;18.90;85.80;;;;;;5091079;28;20275;-72
2021/10/06 08:58:56;;;;;;;10.07;2.23;;;18.90;85.20;;;;;;5082366;28;20218;-71
2021/10/06 09:01:26;;;;;;;9.27;1.90;;;18.90;85.50;;;;;;5093374;28;20182;-71
2021/10/06 09:04:05;;;;;;;8.87;2.40;;;18.70;87.20;;;;;;5074717;28;20190;-71
2021/10/06 09:06:38;;;;;;;7.27;2.10;;;18.70;87.70;;;;;;5081238;28;20176;-71
2021/10/06 09:09:19;;;;;;;8.87;2.00;;;18.80;87.70;;;;;;5094551;28;20641;-71
2021/10/06 09:11:49;;;;;;;7.23;1.97;;;18.70;88.80;;;;;;5081437;28;20233;-71
2021/10/06 09:14:17;;;;;;;4.80;1.40;;;18.70;89.30;;;;;;5094525;28;20178;-71
2021/10/06 09:16:45;;;;;;;6.67;2.57;;;18.60;89.50;;;;;;5094294;28;20724;-72
2021/10/06 09:19:13;;;;;;;10.93;2.03;;;18.60;90.00;;;;;;5079828;28;20207;-71
2021/10/06 09:21:59;;;;;;;8.00;2.00;;;18.50;90.40;;;;;;5094086;28;20621;-71
2021/10/06 09:24:53;;;;;;;10.40;1.87;;;18.50;90.70;;;;;;5092419;28;20178;-71
2021/10/06 09:27:36;;;;;;;9.30;1.90;;;18.50;90.80;;;;;;5093545;28;20178;-71
2021/10/06 09:30:15;;;;;;;8.90;2.40;;;18.50;91.00;;;;;;5094565;28;20223;-72
2021/10/06 09:32:47;;;;;;;5.87;2.00;;;18.40;91.30;;;;;;5089890;28;20190;-70
2021/10/06 09:35:24;;;;;;;6.73;1.90;;;18.40;91.70;;;;;;5092375;28;20163;-70
2021/10/06 09:37:57;;;;;;;8.60;2.03;;;18.40;91.80;;;;;;5088713;28;20209;-70
2021/10/06 09:40:32;;;;;;;9.83;1.70;;;18.40;91.90;;;;;;5093066;28;20210;-71
2021/10/06 09:43:01;;;;;;;7.23;1.73;;;18.40;92.20;;;;;;5091337;28;20597;-71
2021/10/06 09:45:30;;;;;;;10.90;1.87;;;18.40;92.50;;;;;;5093684;28;20175;-70
2021/10/06 09:48:09;;;;;;;9.77;2.27;;;18.30;92.70;;;;;;5093007;28;20179;-71
2021/10/06 09:50:49;;;;;;;6.30;1.73;;;18.30;93.10;;;;;;5082689;28;20170;-71
2021/10/06 09:53:23;;;;;;;9.60;1.67;;;18.20;93.30;;;;;;5091570;28;20658;-74
2021/10/06 09:55:52;;;;;;;8.57;2.33;;;18.20;93.80;;;;;;5082772;28;20245;-71
2021/10/06 09:58:20;;;;;;;9.43;1.90;;;18.20;94.10;;;;;;5093618;28;20202;-71
2021/10/06 10:00:50;;;;;;;16.90;3.67;;;18.10;94.50;;;;;;5092929;28;20544;-72
2021/10/06 10:03:18;;;;;;;11.87;2.33;;;18.10;94.80;;;;;;5092393;28;20248;-71
2021/10/06 10:05:46;;;;;;;8.93;1.87;;;18.10;95.10;;;;;;5092325;28;20191;-71
2021/10/06 10:08:13;;;;;;;4.83;1.70;;;18.10;95.50;;;;;;5093791;28;20692;-70
2021/10/06 10:10:41;;;;;;;10.07;2.03;;;18.10;95.80;;;;;;5093006;28;20266;-71
2021/10/06 10:13:08;;;;;;;9.73;2.20;;;18.10;96.00;;;;;;5093341;28;20585;-71
2021/10/06 10:15:36;;;;;;;9.57;1.93;;;18.00;96.30;;;;;;5093444;28;20183;-70
2021/10/06 10:18:06;;;;;;;12.20;1.83;;;18.00;96.40;;;;;;5085654;28;20259;-71
2021/10/06 10:20:39;;;;;;;8.90;2.20;;;18.00;96.60;;;;;;5087214;28;20178;-72
2021/10/06 10:23:06;;;;;;;11.73;1.93;;;17.90;96.90;;;;;;5093101;28;20212;-71
2021/10/06 10:25:43;;;;;;;10.73;2.07;;;18.00;97.00;;;;;;5090032;28;20261;-71
2021/10/06 10:28:23;;;;;;;5.20;1.80;;;18.00;97.30;;;;;;5093256;28;20574;-71
2021/10/06 10:30:58;;;;;;;12.10;2.07;;;17.90;97.60;;;;;;5087382;28;20186;-69
2021/10/06 10:33:49;;;;;;;12.83;2.50;;;17.90;97.70;;;;;;5091480;28;20174;-71
2021/10/06 10:36:39;;;;;;;10.60;2.43;;;18.00;98.00;;;;;;5089829;28;20179;-71
2021/10/06 10:39:20;;;;;;;11.00;2.10;;;17.90;98.40;;;;;;5084637;28;20218;-72
2021/10/06 10:41:57;;;;;;;8.13;2.00;;;17.90;98.60;;;;;;5078233;28;20579;-71
2021/10/06 10:44:33;;;;;;;16.17;2.20;;;17.90;99.00;;;;;;5088682;28;20175;-72
2021/10/06 10:47:04;;;;;;;12.30;2.50;;;17.80;99.30;;;;;;5078038;28;20197;-72
2021/10/06 10:49:55;;;;;;;14.27;2.10;;;17.80;99.70;;;;;;5092771;28;20175;-72
2021/10/06 10:52:49;;;;;;;9.20;1.97;;;17.80;99.90;;;;;;5089994;28;20507;-73
2021/10/06 10:55:17;;;;;;;14.67;1.83;;;17.80;99.90;;;;;;5086178;28;20194;-72
2021/10/06 10:57:45;;;;;;;12.40;2.53;;;17.80;99.90;;;;;;5091853;28;20206;-70
2021/10/06 11:00:33;;;;;;;11.73;2.00;;;17.80;99.90;;;;;;5092870;28;20213;-72
2021/10/06 11:03:03;;;;;;;8.47;1.90;;;17.80;99.90;;;;;;5091828;28;20261;-72
2021/10/06 11:05:54;;;;;;;10.90;2.27;;;17.80;99.90;;;;;;5092362;28;20217;-71
2021/10/06 11:08:24;;;;;;;17.17;2.03;;;17.70;99.90;;;;;;5092608;28;20202;-71
2021/10/06 11:11:20;;;;;;;16.93;2.17;;;17.70;99.90;;;;;;5081116;28;20180;-72
2021/10/06 11:13:48;;;;;;;12.53;2.07;;;17.70;99.90;;;;;;5068488;28;20224;-72
2021/10/06 11:16:16;;;;;;;11.77;2.30;;;17.70;99.90;;;;;;5092637;28;20186;-72
2021/10/06 11:18:49;;;;;;;10.77;2.47;;;17.60;99.90;;;;;;5083554;28;20703;-72
2021/10/06 11:21:40;;;;;;;17.67;2.50;;;17.70;99.90;;;;;;5090623;28;20174;-72
2021/10/06 11:24:26;;;;;;;12.17;2.23;;;17.60;99.90;;;;;;5090676;28;20188;-72
2021/10/06 11:27:02;;;;;;;12.87;2.43;;;17.60;99.90;;;;;;5092084;28;20170;-73
2021/10/06 11:29:29;;;;;;;10.73;2.13;;;17.60;99.90;;;;;;5088992;28;20603;-73
2021/10/06 11:32:03;;;;;;;14.73;2.30;;;17.60;99.90;;;;;;5075996;28;20532;-72
2021/10/06 11:34:30;;;;;;;13.77;2.40;;;17.60;99.90;;;;;;5072713;28;20235;-72
2021/10/06 11:36:58;;;;;;;9.43;1.97;;;17.60;99.90;;;;;;5076816;28;20191;-73
2021/10/06 11:39:27;;;;;;;11.27;1.70;;;17.50;99.90;;;;;;5070948;28;20207;-72
2021/10/06 11:41:54;;;;;;;9.90;1.90;;;17.50;99.90;;;;;;5077809;28;20191;-73
2021/10/06 11:44:31;;;;;;;12.53;2.83;;;17.50;99.90;;;;;;5069218;28;20275;-73
2021/10/06 11:47:00;;;;;;;13.60;1.67;;;17.40;99.90;;;;;;5071213;28;20218;-73
2021/10/06 11:49:33;;;;;;;11.07;2.27;;;17.40;99.90;;;;;;5071104;28;20189;-73
2021/10/06 11:52:01;;;;;;;17.83;2.67;;;17.40;99.90;;;;;;5071249;28;20183;-74
2021/10/06 11:54:28;;;;;;;11.40;2.17;;;17.30;99.90;;;;;;5075547;28;20229;-74
2021/10/06 11:57:02;;;;;;;11.67;1.60;;;17.30;99.90;;;;;;5071479;28;20684;-76
2021/10/06 11:59:31;;;;;;;10.33;2.80;;;17.30;99.90;;;;;;5076951;28;20207;-73
2021/10/06 12:02:18;;;;;;;12.37;2.00;;;17.30;99.90;;;;;;5074890;28;20186;-76
2021/10/06 12:04:51;;;;;;;13.00;2.33;;;17.30;99.90;;;;;;5077419;28;20195;-72
2021/10/06 12:07:24;;;;;;;15.07;2.53;;;17.30;99.90;;;;;;5093616;28;20239;-73
2021/10/06 12:09:54;;;;;;;13.17;2.10;;;17.20;99.90;;;;;;5082183;28;20610;-75
2021/10/06 12:12:28;;;;;;;11.60;2.03;;;17.20;99.90;;;;;;5094458;28;20229;-72
2021/10/06 12:15:01;;;;;;;18.83;2.67;;;17.20;99.90;;;;;;5090361;28;20187;-73
2021/10/06 12:17:30;;;;;;;13.40;2.20;;;17.20;99.90;;;;;;5085373;28;20254;-73
2021/10/06 12:20:15;;;;;;;24.40;3.30;;;17.10;99.90;;;;;;5083634;28;20181;-73
2021/10/06 12:23:01;;;;;;;14.03;2.40;;;17.10;99.90;;;;;;5095576;28;20178;-74
2021/10/06 12:25:31;;;;;;;15.07;2.77;;;17.10;99.90;;;;;;5083831;28;20205;-74
2021/10/06 12:28:06;;;;;;;16.53;3.00;;;17.00;99.90;;;;;;5092276;28;20286;-73
2021/10/06 12:30:36;;;;;;;15.50;2.90;;;17.00;99.90;;;;;;5087482;28;20185;-74
2021/10/06 12:33:13;;;;;;;15.17;2.60;;;17.00;99.90;;;;;;5095020;28;20181;-74
2021/10/06 12:35:42;;;;;;;20.40;2.97;;;16.90;99.90;;;;;;5095054;28;20179;-72
2021/10/06 12:38:09;;;;;;;25.77;3.17;;;16.90;99.90;;;;;;5091020;28;20202;-72
2021/10/06 12:41:08;;;;;;;17.93;2.70;;;16.90;99.90;;;;;;5095394;28;20652;-73
2021/10/06 12:43:43;;;;;;;12.37;2.60;;;16.80;99.90;;;;;;5080967;28;20201;-72
2021/10/06 12:46:16;;;;;;;21.07;2.97;;;16.80;99.90;;;;;;5076567;28;20174;-71
2021/10/06 12:48:46;;;;;;;15.73;3.10;;;16.70;99.90;;;;;;5080800;28;20171;-71
2021/10/06 12:51:15;;;;;;;19.80;2.93;;;16.60;99.90;;;;;;5085313;28;20648;-70
2021/10/06 12:54:00;;;;;;;13.00;2.37;;;16.50;99.90;;;;;;5093720;28;20251;-71
2021/10/06 12:56:38;;;;;;;17.43;2.83;;;16.40;99.90;;;;;;5094265;28;20183;-71